Time;durP1;ratioP1;P1;durP2;ratioP2;P2;SDS_P1;SDS_P2;PMS_P1;PMS_P2;Temp;Humidity;BMP_temperature;BMP_pressure;BME280_temperature;BME280_humidity;BME280_pressure;Samples;Min_cycle;Max_cycle;Signal;HPM_P1;HPM_P2
2021/04/26 00:01:16;;;;;;;;;;;;;;;-2.90;100.00;101626.47;5094574;28;19989;-65
2021/04/26 00:03:42;;;;;;;;;;;;;;;-2.96;100.00;101632.75;5093745;28;19925;-65
2021/04/26 00:06:08;;;;;;;;;;;;;;;-3.01;100.00;101626.59;5094207;28;19924;-65
2021/04/26 00:08:34;;;;;;;;;;;;;;;-3.05;100.00;101624.88;5094420;28;19931;-65
2021/04/26 00:11:00;;;;;;;;;;;;;;;-3.06;100.00;101623.09;5094365;28;20256;-65
2021/04/26 00:13:26;;;;;;;;;;;;;;;-3.06;100.00;101623.09;5075779;28;19974;-65
2021/04/26 00:15:52;;;;;;;;;;;;;;;-3.01;100.00;101628.38;5094151;28;19988;-65
2021/04/26 00:18:18;;;;;;;;;;;;;;;-2.96;100.00;101638.06;5094249;28;19931;-65
2021/04/26 00:20:44;;;;;;;;;;;;;;;-3.04;100.00;101626.66;5094572;28;20327;-65
2021/04/26 00:23:10;;;;;;;;;;;;;;;-3.02;100.00;101622.19;5093918;28;20375;-65
2021/04/26 00:25:36;;;;;;;;;;;;;;;-2.97;100.00;101619.50;5093785;28;19967;-65
2021/04/26 00:28:03;;;;;;;;;;;;;;;-2.90;100.00;101613.19;5094096;28;19928;-65
2021/04/26 00:30:29;;;;;;;;;;;;;;;-2.91;100.00;101609.66;5093834;28;19977;-65
2021/04/26 00:32:55;;;;;;;;;;;;;;;-2.89;100.00;101618.50;5075309;28;20410;-65
2021/04/26 00:35:21;;;;;;;;;;;;;;;-2.87;100.00;101614.06;5074988;28;20349;-65
2021/04/26 00:37:48;;;;;;;;;;;;;;;-2.96;100.00;101608.84;5093955;28;19924;-65
2021/04/26 00:40:15;;;;;;;;;;;;;;;-3.03;100.00;101607.16;5075689;28;19924;-65
2021/04/26 00:42:41;;;;;;;;;;;;;;;-3.06;100.00;101597.44;5093633;28;19935;-65
2021/04/26 00:45:10;;;;;;;;;;;;;;;-3.04;100.00;101595.63;5093632;28;20023;-65
2021/04/26 00:47:36;;;;;;;;;;;;;;;-3.06;100.00;101599.19;5075376;28;19931;-65
2021/04/26 00:50:03;;;;;;;;;;;;;;;-3.06;100.00;101594.78;5092114;28;19924;-65
2021/04/26 00:52:29;;;;;;;;;;;;;;;-3.12;100.00;101594.84;5093401;28;19931;-65
2021/04/26 00:54:54;;;;;;;;;;;;;;;-3.19;100.00;101585.19;5075592;28;19924;-65
2021/04/26 00:57:20;;;;;;;;;;;;;;;-3.18;100.00;101583.41;5093184;28;19924;-65
2021/04/26 00:59:47;;;;;;;;;;;;;;;-3.21;100.00;101584.31;5093568;28;20341;-65
2021/04/26 01:02:13;;;;;;;;;;;;;;;-3.17;100.00;101588.69;5075308;28;19924;-65
2021/04/26 01:04:39;;;;;;;;;;;;;;;-3.22;100.00;101586.09;5092619;28;19971;-65
2021/04/26 01:07:05;;;;;;;;;;;;;;;-3.32;100.00;101583.56;5074986;28;19955;-65
2021/04/26 01:09:32;;;;;;;;;;;;;;;-3.39;100.00;101578.28;5074961;28;19928;-65
2021/04/26 01:12:04;;;;;;;;;;;;;;;-3.40;100.00;101578.31;5093346;28;19924;-65
2021/04/26 01:14:38;;;;;;;;;;;;;;;-3.40;100.00;101571.22;5058349;28;19935;-65
2021/04/26 01:17:07;;;;;;;;;;;;;;;-3.40;100.00;101570.34;5074788;28;19979;-65
2021/04/26 01:19:50;;;;;;;;;;;;;;;-3.49;100.00;101565.13;5074976;28;19924;-65
2021/04/26 01:22:52;;;;;;;;;;;;;;;-3.55;100.00;101566.06;5074960;28;19924;-65
2021/04/26 01:25:19;;;;;;;;;;;;;;;-3.56;100.00;101559.00;5092538;28;19935;-65
2021/04/26 01:27:55;;;;;;;;;;;;;;;-3.63;100.00;101563.47;5092853;28;20057;-65
2021/04/26 01:30:22;;;;;;;;;;;;;;;-3.71;100.00;101565.31;5074854;28;19973;-65
2021/04/26 01:33:08;;;;;;;;;;;;;;;-3.75;100.00;101563.59;5092450;28;19942;-64
2021/04/26 01:35:39;;;;;;;;;;;;;;;-3.79;100.00;101565.38;5074438;28;20336;-68
2021/04/26 01:38:08;;;;;;;;;;;;;;;-3.79;100.00;101552.09;5092754;28;20351;-70
2021/04/26 01:40:36;;;;;;;;;;;;;;;-3.84;100.00;101561.00;5092804;28;19924;-70
2021/04/26 01:43:03;;;;;;;;;;;;;;;-3.91;100.00;101555.75;5092301;28;19924;-69
2021/04/26 01:45:29;;;;;;;;;;;;;;;-3.91;100.00;101555.75;5057243;28;19928;-70
2021/04/26 01:47:56;;;;;;;;;;;;;;;-3.95;100.00;101553.13;5074438;28;19924;-70
2021/04/26 01:50:27;;;;;;;;;;;;;;;-4.00;100.00;101557.59;5074347;28;19924;-69
2021/04/26 01:52:54;;;;;;;;;;;;;;;-4.01;100.00;101553.19;5074315;28;19925;-70
2021/04/26 01:55:21;;;;;;;;;;;;;;;-4.03;100.00;101547.88;5092256;28;19931;-70
2021/04/26 01:57:49;;;;;;;;;;;;;;;-4.04;100.00;101546.97;5074010;28;19924;-68
2021/04/26 02:00:17;;;;;;;;;;;;;;;-4.02;100.00;101544.34;5091687;28;20302;-70
2021/04/26 02:03:02;;;;;;;;;;;;;;;-4.05;100.00;101545.25;5091676;28;19935;-70
2021/04/26 02:05:33;;;;;;;;;;;;;;;-4.07;100.00;101543.50;5073493;28;19931;-70
2021/04/26 02:08:07;;;;;;;;;;;;;;;-4.09;100.00;101547.91;5074004;28;20386;-69
2021/04/26 02:10:41;;;;;;;;;;;;;;;-4.08;100.00;101541.72;5073904;28;20477;-70
2021/04/26 02:13:07;;;;;;;;;;;;;;;-4.06;100.00;101534.66;5073842;28;19924;-68
2021/04/26 02:15:35;;;;;;;;;;;;;;;-4.11;100.00;101541.75;5056790;28;19924;-70
2021/04/26 02:18:02;;;;;;;;;;;;;;;-4.10;100.00;101530.25;5092024;28;19992;-68
2021/04/26 02:20:28;;;;;;;;;;;;;;;-4.12;100.00;101537.34;5073578;28;19967;-70
2021/04/26 02:22:55;;;;;;;;;;;;;;;-4.14;100.00;101539.13;5073415;28;20101;-70
2021/04/26 02:25:21;;;;;;;;;;;;;;;-4.15;100.00;101527.63;5073114;28;19970;-68
2021/04/26 02:27:48;;;;;;;;;;;;;;;-4.16;100.00;101528.53;5092136;28;20371;-69
2021/04/26 02:30:14;;;;;;;;;;;;;;;-4.20;100.00;101529.44;5091845;28;19924;-68
2021/04/26 02:32:45;;;;;;;;;;;;;;;-4.31;100.00;101520.69;5073228;28;20030;-68
2021/04/26 02:35:33;;;;;;;;;;;;;;;-4.42;100.00;101523.41;5091023;28;20038;-70
2021/04/26 02:38:02;;;;;;;;;;;;;;;-4.47;100.00;101522.56;5073218;28;19924;-70
2021/04/26 02:40:31;;;;;;;;;;;;;;;-4.49;100.00;101525.22;5091552;28;20011;-69
2021/04/26 02:42:58;;;;;;;;;;;;;;;-4.51;100.00;101528.78;5073339;28;19981;-70
2021/04/26 02:45:28;;;;;;;;;;;;;;;-4.55;100.00;101528.78;5073011;28;20324;-70
2021/04/26 02:47:54;;;;;;;;;;;;;;;-4.59;100.00;101527.03;5073443;28;19924;-69
2021/04/26 02:50:25;;;;;;;;;;;;;;;-4.55;100.00;101533.22;5073039;28;19935;-69
2021/04/26 02:53:12;;;;;;;;;;;;;;;-4.63;100.00;101533.25;5091335;28;19978;-69
2021/04/26 02:55:39;;;;;;;;;;;;;;;-4.70;100.00;101531.53;5090848;28;19928;-70
2021/04/26 02:58:05;;;;;;;;;;;;;;;-4.73;100.00;101531.50;5091072;28;20390;-69
2021/04/26 03:00:33;;;;;;;;;;;;;;;-4.76;100.00;101535.06;5072937;28;20244;-69
2021/04/26 03:03:18;;;;;;;;;;;;;;;-4.80;100.00;101527.16;5090688;28;19931;-69
2021/04/26 03:05:44;;;;;;;;;;;;;;;-4.84;100.00;101533.34;5090506;28;20250;-69
2021/04/26 03:08:10;;;;;;;;;;;;;;;-4.83;100.00;101532.47;5090953;28;19971;-70
2021/04/26 03:10:37;;;;;;;;;;;;;;;-4.77;100.00;101533.31;5091085;28;19924;-69
2021/04/26 03:13:04;;;;;;;;;;;;;;;-4.81;100.00;101530.69;5089997;28;20387;-69
2021/04/26 03:15:31;;;;;;;;;;;;;;;-4.80;100.00;101532.44;5072414;28;19931;-69
2021/04/26 03:17:59;;;;;;;;;;;;;;;-4.79;100.00;101529.78;5072846;28;19993;-69
2021/04/26 03:20:27;;;;;;;;;;;;;;;-4.84;100.00;101538.66;5072894;28;19924;-69
2021/04/26 03:23:06;;;;;;;;;;;;;;;-4.84;100.00;101538.66;5072835;28;19928;-70
2021/04/26 03:25:35;;;;;;;;;;;;;;;-4.85;100.00;101532.47;5055714;28;20189;-70
2021/04/26 03:28:02;;;;;;;;;;;;;;;-4.88;100.00;101533.38;5090985;28;19924;-69
2021/04/26 03:30:34;;;;;;;;;;;;;;;-4.85;100.00;101534.22;5072594;28;19928;-69
2021/04/26 03:33:08;;;;;;;;;;;;;;;-4.87;100.00;101536.91;5072201;28;20627;-70
2021/04/26 03:35:36;;;;;;;;;;;;;;;-4.87;100.00;101536.91;5072193;28;19926;-70
2021/04/26 03:38:03;;;;;;;;;;;;;;;-4.89;100.00;101533.34;5072961;28;20303;-69
2021/04/26 03:40:30;;;;;;;;;;;;;;;-4.85;100.00;101537.78;5072710;28;19932;-69
2021/04/26 03:42:57;;;;;;;;;;;;;;;-4.84;100.00;101538.66;5072692;28;19976;-70
2021/04/26 03:45:28;;;;;;;;;;;;;;;-4.82;100.00;101532.47;5072315;28;20073;-70
2021/04/26 03:48:32;;;;;;;;;;;;;;;-4.89;100.00;101534.25;5072457;28;19924;-70
2021/04/26 03:51:08;;;;;;;;;;;;;;;-4.92;100.00;101534.28;5072519;28;19924;-69
2021/04/26 03:54:03;;;;;;;;;;;;;;;-4.95;100.00;101521.03;5090442;28;19928;-69
2021/04/26 03:56:39;;;;;;;;;;;;;;;-4.88;100.00;101533.38;5072318;28;19939;-68
2021/04/26 03:59:06;;;;;;;;;;;;;;;-4.78;100.00;101533.34;5072652;28;19924;-70
2021/04/26 04:01:35;;;;;;;;;;;;;;;-4.69;100.00;101541.22;5090414;28;19924;-70
2021/04/26 04:04:03;;;;;;;;;;;;;;;-4.75;100.00;101534.19;5055330;28;19924;-70
2021/04/26 04:06:49;;;;;;;;;;;;;;;-4.70;100.00;101536.81;5090100;28;20045;-69
2021/04/26 04:09:34;;;;;;;;;;;;;;;-4.64;100.00;101536.78;5071757;28;21529;-70
2021/04/26 04:12:16;;;;;;;;;;;;;;;-4.61;100.00;101542.06;5072423;28;19924;-70
2021/04/26 04:15:09;;;;;;;;;;;;;;;-4.50;100.00;101541.13;5087166;28;20011;-69
2021/04/26 04:17:37;;;;;;;;;;;;;;;-4.41;100.00;101535.75;5090254;28;19924;-70
2021/04/26 04:20:04;;;;;;;;;;;;;;;-4.31;100.00;101541.91;5090673;28;19966;-69
2021/04/26 04:22:34;;;;;;;;;;;;;;;-4.27;100.00;101533.03;5072272;28;19924;-69
2021/04/26 04:25:03;;;;;;;;;;;;;;;-4.13;100.00;101540.88;5094293;28;19978;-69
2021/04/26 04:27:30;;;;;;;;;;;;;;;-4.06;100.00;101550.56;5075939;28;19938;-70
2021/04/26 04:29:57;;;;;;;;;;;;;;;-3.89;100.00;101545.09;5076387;28;19973;-69
2021/04/26 04:32:42;;;;;;;;;;;;;;;-3.70;100.00;101541.41;5095659;28;20357;-70
2021/04/26 04:35:28;;;;;;;;;;;;;;;-3.50;100.00;101542.13;5053445;28;20026;-69
2021/04/26 04:38:12;;;;;;;;;;;;;;;-3.39;100.00;101543.78;5083805;28;19939;-70
2021/04/26 04:40:57;;;;;;;;;;;;;;;-3.29;100.00;101539.22;5093549;28;19947;-70
2021/04/26 04:43:27;;;;;;;;;;;;;;;-3.17;100.00;101540.88;5075584;28;19924;-69
2021/04/26 04:45:55;;;;;;;;;;;;;;;-3.06;100.00;101535.44;5074804;28;19950;-69
2021/04/26 04:48:39;;;;;;;;;;;;;;;-2.88;100.00;101540.53;5074799;28;19924;-69
2021/04/26 04:51:09;;;;;;;;;;;;;;;-2.66;100.00;101542.91;5073892;28;20398;-69
2021/04/26 04:53:38;;;;;;;;;;;;;;;-2.46;100.00;101539.13;5075162;28;19928;-69
2021/04/26 04:56:04;;;;;;;;;;;;;;;-2.31;100.00;101536.25;5075179;28;20371;-68
2021/04/26 04:58:35;;;;;;;;;;;;;;;-2.16;100.00;101540.44;5093003;28;19931;-69
2021/04/26 05:01:02;;;;;;;;;;;;;;;-2.00;100.00;101533.09;5092407;28;19924;-69
2021/04/26 05:03:47;;;;;;;;;;;;;;;-1.81;100.00;101538.13;5091954;28;19977;-69
2021/04/26 05:06:31;;;;;;;;;;;;;;;-1.64;100.00;101529.81;5072265;28;19960;-69
2021/04/26 05:09:17;;;;;;;;;;;;;;;-1.43;100.00;101529.47;5080998;28;19932;-69
2021/04/26 05:12:01;;;;;;;;;;;;;;;-1.22;100.00;101522.81;5085320;28;19962;-69
2021/04/26 05:14:44;;;;;;;;;;;;;;;-1.05;100.00;101513.63;5086388;28;19928;-69
2021/04/26 05:17:10;;;;;;;;;;;;;;;-0.87;100.00;101521.25;5092875;28;19931;-70
2021/04/26 05:19:37;;;;;;;;;;;;;;;-0.66;100.00;101516.38;5074791;28;19938;-69
2021/04/26 05:22:03;;;;;;;;;;;;;;;-0.45;100.00;101522.16;5091941;28;19935;-69
2021/04/26 05:24:31;;;;;;;;;;;;;;;-0.23;100.00;101517.19;5057422;28;19950;-69
2021/04/26 05:26:58;;;;;;;;;;;;;;;-0.01;100.00;101513.09;5073880;28;19924;-69
2021/04/26 05:29:24;;;;;;;;;;;;;;;0.27;100.00;101515.06;5092944;28;19956;-69
2021/04/26 05:31:50;;;;;;;;;;;;;;;0.67;100.00;101513.13;5074781;28;19946;-69
2021/04/26 05:34:16;;;;;;;;;;;;;;;1.16;100.00;101511.75;5074240;28;20260;-69
2021/04/26 05:36:47;;;;;;;;;;;;;;;1.76;100.00;101513.50;5073116;28;19962;-69
2021/04/26 05:39:13;;;;;;;;;;;;;;;2.27;100.00;101510.03;5073639;28;19928;-69
2021/04/26 05:41:39;;;;;;;;;;;;;;;2.82;100.00;101512.56;5092089;28;19931;-70
2021/04/26 05:44:07;;;;;;;;;;;;;;;3.48;100.00;101514.56;5092533;28;19928;-70
2021/04/26 05:46:41;;;;;;;;;;;;;;;3.92;100.00;101508.38;5074709;28;19972;-69
2021/04/26 05:49:07;;;;;;;;;;;;;;;4.70;100.00;101508.66;5092697;28;19928;-69
2021/04/26 05:51:33;;;;;;;;;;;;;;;4.91;95.83;101508.66;5090030;28;20348;-70
2021/04/26 05:54:00;;;;;;;;;;;;;;;5.36;95.26;101507.50;5079627;28;20136;-70
2021/04/26 05:56:26;;;;;;;;;;;;;;;5.78;91.90;101511.75;5091875;28;20078;-70
2021/04/26 05:58:52;;;;;;;;;;;;;;;6.36;86.11;101502.63;5091996;28;19958;-70
2021/04/26 06:01:18;;;;;;;;;;;;;;;6.86;80.56;101509.03;5092527;28;19928;-71
2021/04/26 06:03:44;;;;;;;;;;;;;;;7.44;76.02;101505.94;5090529;28;20295;-70
2021/04/26 06:06:10;;;;;;;;;;;;;;;7.80;72.87;101508.41;5091815;28;20376;-71
2021/04/26 06:08:36;;;;;;;;;;;;;;;8.12;67.50;101502.09;5091865;28;19924;-70
2021/04/26 06:11:02;;;;;;;;;;;;;;;8.63;65.38;101507.22;5092585;28;19924;-71
2021/04/26 06:13:28;;;;;;;;;;;;;;;8.52;63.79;101503.34;5090965;28;20363;-70
2021/04/26 06:15:54;;;;;;;;;;;;;;;8.75;64.90;101505.59;5091089;28;19931;-70
2021/04/26 06:18:21;;;;;;;;;;;;;;;8.87;63.09;101494.91;5072396;28;19986;-70
2021/04/26 06:20:48;;;;;;;;;;;;;;;9.14;60.09;101496.84;5078585;28;20301;-70
2021/04/26 06:23:13;;;;;;;;;;;;;;;9.44;57.71;101495.00;5086947;28;19967;-70
2021/04/26 06:25:40;;;;;;;;;;;;;;;9.74;56.78;101497.56;5090594;28;19935;-70
2021/04/26 06:28:07;;;;;;;;;;;;;;;9.96;54.63;101502.44;5092135;28;20015;-70
2021/04/26 06:30:33;;;;;;;;;;;;;;;10.47;52.52;101481.91;5091274;28;19928;-70
2021/04/26 06:32:59;;;;;;;;;;;;;;;10.76;51.57;101485.31;5091362;28;19969;-70
2021/04/26 06:35:25;;;;;;;;;;;;;;;10.83;51.38;101491.16;5090568;28;19977;-70
2021/04/26 06:37:51;;;;;;;;;;;;;;;11.08;49.96;101484.88;5091247;28;19924;-70
2021/04/26 06:40:17;;;;;;;;;;;;;;;11.07;49.16;101488.56;5091808;28;19935;-70
2021/04/26 06:42:43;;;;;;;;;;;;;;;11.52;48.23;101486.22;5091498;28;19994;-70
2021/04/26 06:45:11;;;;;;;;;;;;;;;11.62;46.41;101489.13;5091114;28;20031;-70
2021/04/26 06:47:37;;;;;;;;;;;;;;;11.56;45.05;101482.28;5090987;28;19924;-70
2021/04/26 06:50:04;;;;;;;;;;;;;;;11.69;44.50;101482.25;5091577;28;20062;-70
2021/04/26 06:52:30;;;;;;;;;;;;;;;11.93;42.24;101477.81;5090823;28;20381;-71
2021/04/26 06:54:56;;;;;;;;;;;;;;;11.87;43.38;101482.72;5073056;28;19943;-68
2021/04/26 06:57:21;;;;;;;;;;;;;;;11.97;42.35;101482.06;5089404;28;20299;-69
2021/04/26 06:59:47;;;;;;;;;;;;;;;12.30;42.19;101475.06;5090585;28;19929;-69
2021/04/26 07:02:14;;;;;;;;;;;;;;;12.33;40.98;101477.53;5090669;28;19928;-70
2021/04/26 07:04:40;;;;;;;;;;;;;;;12.26;41.21;101463.53;5090053;28;20505;-69
2021/04/26 07:07:05;;;;;;;;;;;;;;;12.05;40.85;101471.47;5090781;28;19939;-69
2021/04/26 07:09:31;;;;;;;;;;;;;;;12.23;40.46;101463.78;5090767;28;19924;-69
2021/04/26 07:11:57;;;;;;;;;;;;;;;12.81;41.07;101465.66;5090846;28;19946;-68
2021/04/26 07:14:23;;;;;;;;;;;;;;;12.90;40.70;101467.66;5090784;28;19935;-68
2021/04/26 07:16:49;;;;;;;;;;;;;;;12.87;39.17;101467.91;5086944;28;19924;-68
2021/04/26 07:19:16;;;;;;;;;;;;;;;12.76;39.27;101462.44;5072418;28;19928;-68
2021/04/26 07:21:41;;;;;;;;;;;;;;;13.31;38.74;101473.50;5090422;28;19960;-68
2021/04/26 07:24:08;;;;;;;;;;;;;;;13.08;37.84;101465.34;5072155;28;19932;-69
2021/04/26 07:26:33;;;;;;;;;;;;;;;13.10;36.39;101459.75;5090312;28;19963;-68
2021/04/26 07:28:59;;;;;;;;;;;;;;;13.64;36.62;101452.69;5091114;28;20027;-69
2021/04/26 07:31:25;;;;;;;;;;;;;;;13.98;36.15;101458.91;5090523;28;19924;-68
2021/04/26 07:33:51;;;;;;;;;;;;;;;13.50;36.24;101464.75;5089306;28;19947;-68
2021/04/26 07:36:17;;;;;;;;;;;;;;;13.37;34.03;101456.69;5089917;28;20240;-68
2021/04/26 07:38:43;;;;;;;;;;;;;;;13.89;34.53;101446.91;5090463;28;20434;-68
2021/04/26 07:41:10;;;;;;;;;;;;;;;14.00;34.17;101453.31;5090696;28;19972;-68
2021/04/26 07:43:36;;;;;;;;;;;;;;;14.06;34.52;101444.63;5090175;28;19928;-68
2021/04/26 07:46:01;;;;;;;;;;;;;;;14.28;33.86;101449.09;5090468;28;19924;-67
2021/04/26 07:48:27;;;;;;;;;;;;;;;14.59;33.20;101457.41;5090346;28;19924;-68
2021/04/26 07:50:53;;;;;;;;;;;;;;;14.32;33.33;101455.19;5090135;28;19932;-68
2021/04/26 07:53:20;;;;;;;;;;;;;;;14.64;33.11;101448.84;5090447;28;19924;-68
2021/04/26 07:55:45;;;;;;;;;;;;;;;14.99;33.23;101448.47;5090544;28;20010;-68
2021/04/26 07:58:11;;;;;;;;;;;;;;;13.87;34.19;101456.25;5091507;28;19928;-68
2021/04/26 08:00:37;;;;;;;;;;;;;;;13.67;34.40;101449.69;5094557;28;20403;-69
2021/04/26 08:03:03;;;;;;;;;;;;;;;13.94;33.66;101443.78;5094232;28;20018;-69
2021/04/26 08:05:29;;;;;;;;;;;;;;;13.26;34.66;101441.16;5093298;28;20013;-69
2021/04/26 08:07:55;;;;;;;;;;;;;;;13.85;34.18;101442.69;5094245;28;19931;-69
2021/04/26 08:10:22;;;;;;;;;;;;;;;14.11;34.02;101436.91;5094596;28;19955;-68
2021/04/26 08:12:48;;;;;;;;;;;;;;;13.99;31.29;101437.94;5094666;28;19924;-69
2021/04/26 08:15:15;;;;;;;;;;;;;;;14.83;33.50;101429.84;5094282;28;20429;-69
2021/04/26 08:17:40;;;;;;;;;;;;;;;15.22;30.77;101429.16;5094022;28;20469;-69
2021/04/26 08:20:08;;;;;;;;;;;;;;;15.95;30.45;101428.03;5094402;28;20174;-69
2021/04/26 08:22:33;;;;;;;;;;;;;;;16.24;30.67;101407.00;5093456;28;20303;-69
2021/04/26 08:24:59;;;;;;;;;;;;;;;16.40;30.56;101425.56;5093497;28;19924;-69
2021/04/26 08:27:26;;;;;;;;;;;;;;;16.31;31.50;101422.84;5093633;28;19924;-69
2021/04/26 08:29:52;;;;;;;;;;;;;;;16.34;29.28;101417.97;5094204;28;20370;-70
2021/04/26 08:32:19;;;;;;;;;;;;;;;16.80;30.22;101422.78;5094088;28;19924;-69
2021/04/26 08:34:44;;;;;;;;;;;;;;;16.10;29.42;101409.31;5092602;28;19960;-69
2021/04/26 08:37:10;;;;;;;;;;;;;;;16.95;30.14;101421.31;5093774;28;19924;-69
2021/04/26 08:39:36;;;;;;;;;;;;;;;15.99;30.14;101415.78;5093184;28;20417;-70
2021/04/26 08:42:02;;;;;;;;;;;;;;;14.06;31.57;101418.19;5093732;28;20379;-68
2021/04/26 08:44:28;;;;;;;;;;;;;;;13.13;31.34;101419.47;5093734;28;19946;-69
2021/04/26 08:46:56;;;;;;;;;;;;;;;12.53;31.76;101419.69;5093643;28;19928;-69
2021/04/26 08:49:22;;;;;;;;;;;;;;;13.04;33.26;101426.56;5093648;28;19924;-69
2021/04/26 08:51:48;;;;;;;;;;;;;;;12.38;34.92;101424.47;5075452;28;19928;-69
2021/04/26 08:54:14;;;;;;;;;;;;;;;11.71;36.44;101435.91;5093184;28;19928;-69
2021/04/26 08:56:40;;;;;;;;;;;;;;;10.79;37.49;101427.19;5092687;28;19935;-69
2021/04/26 08:59:06;;;;;;;;;;;;;;;10.13;39.20;101433.50;5093729;28;19924;-69
2021/04/26 09:01:32;;;;;;;;;;;;;;;9.79;40.81;101437.59;5091721;28;19924;-70
2021/04/26 09:04:04;;;;;;;;;;;;;;;9.18;42.26;101427.97;5092317;28;19924;-70
2021/04/26 09:06:46;;;;;;;;;;;;;;;9.02;43.61;101436.19;5092680;28;19985;-69
2021/04/26 09:09:11;;;;;;;;;;;;;;;9.08;44.93;101443.06;5085208;28;19959;-69
2021/04/26 09:11:50;;;;;;;;;;;;;;;9.17;44.37;101438.91;5091243;28;20013;-69
2021/04/26 09:14:33;;;;;;;;;;;;;;;8.82;42.31;101429.34;5092081;28;19993;-69
2021/04/26 09:17:20;;;;;;;;;;;;;;;9.30;43.41;101436.25;5091673;28;19928;-68
2021/04/26 09:19:45;;;;;;;;;;;;;;;11.43;38.93;101427.09;5080830;28;20023;-68
2021/04/26 09:22:13;;;;;;;;;;;;;;;11.75;38.28;101429.25;5093086;28;19928;-69
2021/04/26 09:24:39;;;;;;;;;;;;;;;11.48;37.34;101422.19;5092720;28;19985;-71
2021/04/26 09:27:06;;;;;;;;;;;;;;;11.13;35.27;101420.22;5091139;28;19924;-71
2021/04/26 09:29:33;;;;;;;;;;;;;;;10.49;36.55;101420.22;5090774;28;19928;-71
2021/04/26 09:32:10;;;;;;;;;;;;;;;10.15;37.58;101422.53;5074734;28;20427;-71
2021/04/26 09:34:37;;;;;;;;;;;;;;;9.66;38.65;101422.16;5091645;28;19935;-71
2021/04/26 09:37:04;;;;;;;;;;;;;;;9.47;39.71;101424.34;5091796;28;19928;-71
2021/04/26 09:39:30;;;;;;;;;;;;;;;9.40;37.93;101426.56;5091836;28;20018;-71
2021/04/26 09:41:57;;;;;;;;;;;;;;;9.32;38.02;101421.66;5091620;28;20018;-71
2021/04/26 09:44:23;;;;;;;;;;;;;;;9.50;39.20;101419.59;5092089;28;19977;-71
2021/04/26 09:46:50;;;;;;;;;;;;;;;9.35;36.32;101412.44;5092166;28;19932;-71
2021/04/26 09:49:18;;;;;;;;;;;;;;;10.68;33.47;101404.38;5083391;28;19932;-65
2021/04/26 09:51:45;;;;;;;;;;;;;;;11.93;33.28;101407.94;5054227;28;19932;-66
2021/04/26 09:54:11;;;;;;;;;;;;;;;12.76;32.22;101402.50;5085469;28;19924;-71
2021/04/26 09:56:40;;;;;;;;;;;;;;;12.81;32.22;101403.88;5092060;28;19967;-71
2021/04/26 09:59:06;;;;;;;;;;;;;;;12.64;31.71;101398.91;5091135;28;20650;-71
2021/04/26 10:01:32;;;;;;;;;;;;;;;12.44;30.87;101392.31;5091365;28;19924;-71
2021/04/26 10:03:58;;;;;;;;;;;;;;;12.29;30.69;101381.63;5089789;28;20383;-70
2021/04/26 10:06:25;;;;;;;;;;;;;;;11.28;33.01;101382.88;5091853;28;19963;-72
2021/04/26 10:08:52;;;;;;;;;;;;;;;11.16;33.60;101387.38;5092137;28;19935;-72
2021/04/26 10:11:21;;;;;;;;;;;;;;;11.38;34.20;101388.50;5092086;28;20342;-72
2021/04/26 10:13:48;;;;;;;;;;;;;;;11.32;34.64;101387.09;5072012;28;19958;-72
2021/04/26 10:16:15;;;;;;;;;;;;;;;11.52;32.21;101376.59;5089463;28;19934;-71
2021/04/26 10:18:41;;;;;;;;;;;;;;;11.72;33.89;101380.53;5091549;28;19970;-71
2021/04/26 10:21:26;;;;;;;;;;;;;;;11.46;29.92;101377.91;5073525;28;19985;-71
2021/04/26 10:23:53;;;;;;;;;;;;;;;11.12;30.56;101374.13;5091539;28;19977;-71
2021/04/26 10:26:38;;;;;;;;;;;;;;;11.22;31.35;101372.44;5091462;28;19924;-71
2021/04/26 10:29:12;;;;;;;;;;;;;;;11.46;31.42;101372.47;5091515;28;19924;-71
2021/04/26 10:31:56;;;;;;;;;;;;;;;10.74;31.52;101370.47;5091758;28;19931;-71
2021/04/26 10:34:22;;;;;;;;;;;;;;;11.03;33.38;101364.78;5090587;28;19964;-70
2021/04/26 10:36:53;;;;;;;;;;;;;;;10.96;31.75;101371.66;5069783;28;19924;-71
2021/04/26 10:39:21;;;;;;;;;;;;;;;10.99;31.75;101366.84;5091482;28;19979;-70
2021/04/26 10:41:58;;;;;;;;;;;;;;;10.58;32.35;101357.13;5091147;28;19927;-71
2021/04/26 10:44:44;;;;;;;;;;;;;;;10.12;32.25;101363.06;5089419;28;20015;-71
2021/04/26 10:47:15;;;;;;;;;;;;;;;9.94;32.37;101357.94;5083701;28;20027;-71
2021/04/26 10:49:40;;;;;;;;;;;;;;;9.89;32.94;101354.66;5089940;28;20468;-70
2021/04/26 10:52:21;;;;;;;;;;;;;;;10.03;32.56;101345.56;5091069;28;19955;-70
2021/04/26 10:54:48;;;;;;;;;;;;;;;9.96;33.41;101346.97;5089624;28;19955;-70
2021/04/26 10:57:28;;;;;;;;;;;;;;;10.17;33.39;101347.34;5090910;28;20426;-70
2021/04/26 10:59:54;;;;;;;;;;;;;;;10.21;33.67;101344.28;5090947;28;20321;-70
2021/04/26 11:02:30;;;;;;;;;;;;;;;10.19;31.72;101335.38;5091275;28;19986;-70
2021/04/26 11:05:13;;;;;;;;;;;;;;;10.71;33.16;101338.97;5090876;28;20352;-70
2021/04/26 11:07:41;;;;;;;;;;;;;;;11.23;32.36;101333.44;5090434;28;19967;-70
2021/04/26 11:10:22;;;;;;;;;;;;;;;11.91;30.03;101330.19;5089564;28;19940;-70
2021/04/26 11:12:48;;;;;;;;;;;;;;;13.16;27.83;101332.03;5072958;28;19981;-70
2021/04/26 11:15:16;;;;;;;;;;;;;;;14.85;27.38;101321.22;5090919;28;19931;-70
2021/04/26 11:17:42;;;;;;;;;;;;;;;15.09;27.00;101311.81;5090668;28;19947;-70
2021/04/26 11:20:13;;;;;;;;;;;;;;;15.18;28.20;101316.44;5091170;28;19924;-70
2021/04/26 11:22:39;;;;;;;;;;;;;;;15.19;25.49;101315.44;5090523;28;20316;-70
2021/04/26 11:25:06;;;;;;;;;;;;;;;14.52;25.54;101315.03;5090423;28;19949;-69
2021/04/26 11:27:33;;;;;;;;;;;;;;;13.71;26.83;101314.78;5090237;28;19924;-69
2021/04/26 11:30:27;;;;;;;;;;;;;;;13.01;28.65;101316.91;5090341;28;19931;-69
2021/04/26 11:33:11;;;;;;;;;;;;;;;12.27;30.27;101317.44;5029268;28;19982;-62
2021/04/26 11:35:59;;;;;;;;;;;;;;;11.56;29.69;101308.28;5090132;28;20402;-63
2021/04/26 11:38:25;;;;;;;;;;;;;;;11.35;30.93;101309.91;5090197;28;19962;-64
2021/04/26 11:40:51;;;;;;;;;;;;;;;11.46;31.67;101312.66;5090653;28;19928;-65
2021/04/26 11:43:17;;;;;;;;;;;;;;;11.33;30.25;101307.31;5090423;28;19959;-64
2021/04/26 11:45:46;;;;;;;;;;;;;;;11.10;30.85;101303.56;5081185;28;20430;-65
2021/04/26 11:48:19;;;;;;;;;;;;;;;11.16;33.93;101303.13;5090582;28;20126;-65
2021/04/26 11:50:46;;;;;;;;;;;;;;;11.09;31.72;101304.59;5086002;28;19984;-67
2021/04/26 11:53:22;;;;;;;;;;;;;;;11.06;31.23;101299.34;5089693;28;19931;-65
2021/04/26 11:55:48;;;;;;;;;;;;;;;11.05;30.72;101295.78;5089543;28;20030;-65
2021/04/26 11:58:13;;;;;;;;;;;;;;;11.12;31.86;101281.75;5090630;28;19928;-65
2021/04/26 12:00:39;;;;;;;;;;;;;;;10.92;29.98;101288.66;5090317;28;19967;-65
2021/04/26 12:03:06;;;;;;;;;;;;;;;10.83;30.24;101282.91;5089895;28;19924;-66
2021/04/26 12:05:33;;;;;;;;;;;;;;;10.89;31.51;101279.75;5104736;28;19928;-66
2021/04/26 12:08:00;;;;;;;;;;;;;;;11.27;30.47;101279.72;5090429;28;19931;-64
2021/04/26 12:10:26;;;;;;;;;;;;;;;11.61;30.05;101277.13;5087898;28;19974;-65
2021/04/26 12:12:54;;;;;;;;;;;;;;;12.94;27.14;101272.09;5089355;28;19939;-64
2021/04/26 12:15:20;;;;;;;;;;;;;;;14.04;26.66;101263.72;5085502;28;19935;-63
2021/04/26 12:17:48;;;;;;;;;;;;;;;15.06;25.21;101257.41;5089819;28;19963;-64
2021/04/26 12:20:17;;;;;;;;;;;;;;;14.46;26.32;101255.47;5090452;28;19971;-64
2021/04/26 12:22:43;;;;;;;;;;;;;;;13.67;25.52;101258.72;5090251;28;19925;-65
2021/04/26 12:25:11;;;;;;;;;;;;;;;12.28;25.91;101261.97;5089873;28;19924;-64
2021/04/26 12:27:37;;;;;;;;;;;;;;;11.32;27.91;101259.38;5054733;28;19924;-63
2021/04/26 12:30:10;;;;;;;;;;;;;;;10.53;28.73;101261.59;5089939;28;19978;-63
2021/04/26 12:32:36;;;;;;;;;;;;;;;9.98;29.58;101256.41;5090206;28;19971;-63
2021/04/26 12:35:04;;;;;;;;;;;;;;;10.21;30.07;101262.03;5089281;28;20376;-63
2021/04/26 12:37:31;;;;;;;;;;;;;;;10.48;30.50;101259.22;5090248;28;20024;-64
2021/04/26 12:40:11;;;;;;;;;;;;;;;10.64;31.18;101255.38;5090106;28;19982;-64
2021/04/26 12:42:37;;;;;;;;;;;;;;;10.57;34.16;101254.97;5089465;28;19998;-64
2021/04/26 12:45:07;;;;;;;;;;;;;;;9.96;30.90;101261.03;5091801;28;19924;-63